sensor_id;sensor_type;location;lat;lon;timestamp;P1;durP1;ratioP1;P2;durP2;ratioP2
5555;SDS011;2801;50.972;7.856;2023-04-24T00:01:55;0.90;;;0.70;;
5555;SDS011;2801;50.972;7.856;2023-04-24T00:04:24;1.05;;;0.80;;
5555;SDS011;2801;50.972;7.856;2023-04-24T00:06:52;1.90;;;0.77;;
5555;SDS011;2801;50.972;7.856;2023-04-24T00:09:23;0.88;;;0.70;;
5555;SDS011;2801;50.972;7.856;2023-04-24T00:11:50;1.20;;;0.70;;
5555;SDS011;2801;50.972;7.856;2023-04-24T00:14:18;0.60;;;0.60;;
5555;SDS011;2801;50.972;7.856;2023-04-24T00:16:45;2.08;;;0.70;;
5555;SDS011;2801;50.972;7.856;2023-04-24T00:19:12;0.90;;;0.60;;
5555;SDS011;2801;50.972;7.856;2023-04-24T00:21:39;0.63;;;0.63;;
5555;SDS011;2801;50.972;7.856;2023-04-24T00:24:07;1.27;;;0.73;;
5555;SDS011;2801;50.972;7.856;2023-04-24T00:26:35;0.77;;;0.63;;
5555;SDS011;2801;50.972;7.856;2023-04-24T00:29:02;2.15;;;0.55;;
5555;SDS011;2801;50.972;7.856;2023-04-24T00:31:29;2.25;;;0.57;;
5555;SDS011;2801;50.972;7.856;2023-04-24T00:33:56;0.60;;;0.60;;
5555;SDS011;2801;50.972;7.856;2023-04-24T00:36:24;0.60;;;0.50;;
5555;SDS011;2801;50.972;7.856;2023-04-24T00:38:51;1.77;;;0.60;;
5555;SDS011;2801;50.972;7.856;2023-04-24T00:41:18;0.77;;;0.60;;
5555;SDS011;2801;50.972;7.856;2023-04-24T00:43:45;0.60;;;0.60;;
5555;SDS011;2801;50.972;7.856;2023-04-24T00:46:12;0.40;;;0.40;;
5555;SDS011;2801;50.972;7.856;2023-04-24T00:48:40;3.95;;;0.80;;
5555;SDS011;2801;50.972;7.856;2023-04-24T00:51:07;0.95;;;0.63;;
5555;SDS011;2801;50.972;7.856;2023-04-24T00:53:34;0.70;;;0.63;;
5555;SDS011;2801;50.972;7.856;2023-04-24T00:56:02;0.88;;;0.50;;
5555;SDS011;2801;50.972;7.856;2023-04-24T00:58:29;0.68;;;0.68;;
5555;SDS011;2801;50.972;7.856;2023-04-24T01:00:57;2.28;;;0.73;;
5555;SDS011;2801;50.972;7.856;2023-04-24T01:03:28;0.85;;;0.70;;
5555;SDS011;2801;50.972;7.856;2023-04-24T01:05:58;1.48;;;0.70;;
5555;SDS011;2801;50.972;7.856;2023-04-24T01:08:25;1.35;;;0.70;;
5555;SDS011;2801;50.972;7.856;2023-04-24T01:10:54;0.55;;;0.55;;
5555;SDS011;2801;50.972;7.856;2023-04-24T01:13:23;1.17;;;0.50;;
5555;SDS011;2801;50.972;7.856;2023-04-24T01:15:50;3.75;;;0.70;;
5555;SDS011;2801;50.972;7.856;2023-04-24T01:18:17;1.23;;;0.60;;
5555;SDS011;2801;50.972;7.856;2023-04-24T01:20:44;0.98;;;0.63;;
5555;SDS011;2801;50.972;7.856;2023-04-24T01:23:12;0.60;;;0.60;;
5555;SDS011;2801;50.972;7.856;2023-04-24T01:25:40;0.95;;;0.65;;
5555;SDS011;2801;50.972;7.856;2023-04-24T01:28:07;2.58;;;1.23;;
5555;SDS011;2801;50.972;7.856;2023-04-24T01:30:34;0.90;;;0.60;;
5555;SDS011;2801;50.972;7.856;2023-04-24T01:33:01;2.17;;;0.77;;
5555;SDS011;2801;50.972;7.856;2023-04-24T01:35:29;0.90;;;0.60;;
5555;SDS011;2801;50.972;7.856;2023-04-24T01:37:55;0.85;;;0.70;;
5555;SDS011;2801;50.972;7.856;2023-04-24T01:40:22;2.35;;;0.70;;
5555;SDS011;2801;50.972;7.856;2023-04-24T01:42:49;1.50;;;0.70;;
5555;SDS011;2801;50.972;7.856;2023-04-24T01:45:17;0.73;;;0.65;;
5555;SDS011;2801;50.972;7.856;2023-04-24T01:47:44;2.70;;;0.70;;
5555;SDS011;2801;50.972;7.856;2023-04-24T01:50:12;1.35;;;0.75;;
5555;SDS011;2801;50.972;7.856;2023-04-24T01:52:40;1.02;;;0.77;;
5555;SDS011;2801;50.972;7.856;2023-04-24T01:55:07;1.63;;;0.73;;
5555;SDS011;2801;50.972;7.856;2023-04-24T01:57:34;0.70;;;0.70;;
5555;SDS011;2801;50.972;7.856;2023-04-24T02:00:03;1.15;;;0.70;;
5555;SDS011;2801;50.972;7.856;2023-04-24T02:02:30;1.35;;;0.80;;
5555;SDS011;2801;50.972;7.856;2023-04-24T02:04:58;1.20;;;0.70;;
5555;SDS011;2801;50.972;7.856;2023-04-24T02:07:25;0.70;;;0.65;;
5555;SDS011;2801;50.972;7.856;2023-04-24T02:09:52;3.17;;;0.70;;
5555;SDS011;2801;50.972;7.856;2023-04-24T02:12:19;0.98;;;0.70;;
5555;SDS011;2801;50.972;7.856;2023-04-24T02:14:46;0.80;;;0.80;;
5555;SDS011;2801;50.972;7.856;2023-04-24T02:17:13;1.20;;;0.70;;
5555;SDS011;2801;50.972;7.856;2023-04-24T02:19:41;1.02;;;0.70;;
5555;SDS011;2801;50.972;7.856;2023-04-24T02:22:09;0.73;;;0.70;;
5555;SDS011;2801;50.972;7.856;2023-04-24T02:24:37;1.00;;;0.73;;
5555;SDS011;2801;50.972;7.856;2023-04-24T02:27:05;1.05;;;0.75;;
5555;SDS011;2801;50.972;7.856;2023-04-24T02:29:32;0.70;;;0.70;;
5555;SDS011;2801;50.972;7.856;2023-04-24T02:31:59;2.15;;;0.70;;
5555;SDS011;2801;50.972;7.856;2023-04-24T02:34:26;0.98;;;0.60;;
5555;SDS011;2801;50.972;7.856;2023-04-24T02:36:53;3.20;;;0.80;;
5555;SDS011;2801;50.972;7.856;2023-04-24T02:39:20;1.45;;;0.95;;
5555;SDS011;2801;50.972;7.856;2023-04-24T02:41:47;1.50;;;0.70;;
5555;SDS011;2801;50.972;7.856;2023-04-24T02:44:14;1.08;;;0.90;;
5555;SDS011;2801;50.972;7.856;2023-04-24T02:46:41;1.08;;;0.70;;
5555;SDS011;2801;50.972;7.856;2023-04-24T02:49:08;1.73;;;1.00;;
5555;SDS011;2801;50.972;7.856;2023-04-24T02:51:35;1.77;;;1.02;;
5555;SDS011;2801;50.972;7.856;2023-04-24T02:54:04;2.53;;;1.30;;
5555;SDS011;2801;50.972;7.856;2023-04-24T02:56:31;2.73;;;1.67;;
5555;SDS011;2801;50.972;7.856;2023-04-24T02:58:58;4.10;;;2.08;;
5555;SDS011;2801;50.972;7.856;2023-04-24T03:01:24;3.65;;;1.98;;
5555;SDS011;2801;50.972;7.856;2023-04-24T03:03:52;3.33;;;2.00;;
5555;SDS011;2801;50.972;7.856;2023-04-24T03:06:19;3.33;;;1.67;;
5555;SDS011;2801;50.972;7.856;2023-04-24T03:08:47;1.98;;;1.70;;
5555;SDS011;2801;50.972;7.856;2023-04-24T03:11:14;4.75;;;1.92;;
5555;SDS011;2801;50.972;7.856;2023-04-24T03:13:40;3.80;;;1.83;;
5555;SDS011;2801;50.972;7.856;2023-04-24T03:16:07;3.27;;;2.00;;
5555;SDS011;2801;50.972;7.856;2023-04-24T03:18:34;2.97;;;2.17;;
5555;SDS011;2801;50.972;7.856;2023-04-24T03:21:01;4.97;;;2.20;;
5555;SDS011;2801;50.972;7.856;2023-04-24T03:23:29;5.93;;;2.25;;
5555;SDS011;2801;50.972;7.856;2023-04-24T03:25:56;4.07;;;2.10;;
5555;SDS011;2801;50.972;7.856;2023-04-24T03:28:23;4.00;;;2.13;;
5555;SDS011;2801;50.972;7.856;2023-04-24T03:30:51;4.10;;;2.25;;
5555;SDS011;2801;50.972;7.856;2023-04-24T03:33:18;3.60;;;2.60;;
5555;SDS011;2801;50.972;7.856;2023-04-24T03:35:45;2.97;;;2.20;;
5555;SDS011;2801;50.972;7.856;2023-04-24T03:38:12;5.60;;;2.90;;
5555;SDS011;2801;50.972;7.856;2023-04-24T03:40:39;4.93;;;2.70;;
5555;SDS011;2801;50.972;7.856;2023-04-24T03:43:06;4.73;;;2.70;;
5555;SDS011;2801;50.972;7.856;2023-04-24T03:45:33;4.50;;;3.10;;
5555;SDS011;2801;50.972;7.856;2023-04-24T03:47:59;6.55;;;3.53;;
5555;SDS011;2801;50.972;7.856;2023-04-24T03:50:26;8.03;;;4.20;;
5555;SDS011;2801;50.972;7.856;2023-04-24T03:52:55;7.37;;;4.37;;
5555;SDS011;2801;50.972;7.856;2023-04-24T03:55:22;8.33;;;5.10;;
5555;SDS011;2801;50.972;7.856;2023-04-24T03:57:48;6.17;;;4.23;;
5555;SDS011;2801;50.972;7.856;2023-04-24T04:00:15;7.43;;;4.63;;
5555;SDS011;2801;50.972;7.856;2023-04-24T04:02:42;8.17;;;5.67;;
5555;SDS011;2801;50.972;7.856;2023-04-24T04:05:09;11.10;;;6.30;;
5555;SDS011;2801;50.972;7.856;2023-04-24T04:07:36;10.47;;;5.70;;
5555;SDS011;2801;50.972;7.856;2023-04-24T04:10:03;11.73;;;6.63;;
5555;SDS011;2801;50.972;7.856;2023-04-24T04:12:33;10.40;;;6.03;;
5555;SDS011;2801;50.972;7.856;2023-04-24T04:15:00;10.63;;;6.17;;
5555;SDS011;2801;50.972;7.856;2023-04-24T04:17:27;9.23;;;5.87;;
5555;SDS011;2801;50.972;7.856;2023-04-24T04:19:54;11.00;;;6.30;;
5555;SDS011;2801;50.972;7.856;2023-04-24T04:22:21;12.27;;;5.97;;
5555;SDS011;2801;50.972;7.856;2023-04-24T04:24:48;10.07;;;5.63;;
5555;SDS011;2801;50.972;7.856;2023-04-24T04:27:16;9.13;;;5.40;;
5555;SDS011;2801;50.972;7.856;2023-04-24T04:29:44;6.97;;;5.07;;
5555;SDS011;2801;50.972;7.856;2023-04-24T04:32:11;12.13;;;6.73;;
5555;SDS011;2801;50.972;7.856;2023-04-24T04:34:38;9.57;;;5.93;;
5555;SDS011;2801;50.972;7.856;2023-04-24T04:37:05;8.53;;;6.10;;
5555;SDS011;2801;50.972;7.856;2023-04-24T04:39:32;10.10;;;6.60;;
5555;SDS011;2801;50.972;7.856;2023-04-24T04:41:59;9.80;;;5.97;;
5555;SDS011;2801;50.972;7.856;2023-04-24T04:44:26;9.83;;;6.30;;
5555;SDS011;2801;50.972;7.856;2023-04-24T04:46:55;11.43;;;6.13;;
5555;SDS011;2801;50.972;7.856;2023-04-24T04:49:23;9.57;;;6.33;;
5555;SDS011;2801;50.972;7.856;2023-04-24T04:51:50;9.97;;;6.10;;
5555;SDS011;2801;50.972;7.856;2023-04-24T04:54:17;8.90;;;6.07;;
5555;SDS011;2801;50.972;7.856;2023-04-24T04:56:44;11.17;;;6.20;;
5555;SDS011;2801;50.972;7.856;2023-04-24T04:59:11;10.50;;;5.70;;
5555;SDS011;2801;50.972;7.856;2023-04-24T05:01:38;9.20;;;5.77;;
5555;SDS011;2801;50.972;7.856;2023-04-24T05:04:05;11.90;;;6.10;;
5555;SDS011;2801;50.972;7.856;2023-04-24T05:06:32;10.07;;;5.93;;
5555;SDS011;2801;50.972;7.856;2023-04-24T05:09:00;10.50;;;6.17;;
5555;SDS011;2801;50.972;7.856;2023-04-24T05:11:26;9.37;;;6.40;;
5555;SDS011;2801;50.972;7.856;2023-04-24T05:13:53;9.40;;;5.97;;
5555;SDS011;2801;50.972;7.856;2023-04-24T05:16:20;11.43;;;5.60;;
5555;SDS011;2801;50.972;7.856;2023-04-24T05:18:47;9.23;;;6.10;;
5555;SDS011;2801;50.972;7.856;2023-04-24T05:21:14;8.20;;;5.47;;
5555;SDS011;2801;50.972;7.856;2023-04-24T05:23:41;11.57;;;6.00;;
5555;SDS011;2801;50.972;7.856;2023-04-24T05:26:08;10.30;;;6.17;;
5555;SDS011;2801;50.972;7.856;2023-04-24T05:28:35;8.47;;;6.07;;
5555;SDS011;2801;50.972;7.856;2023-04-24T05:31:03;8.07;;;5.13;;
5555;SDS011;2801;50.972;7.856;2023-04-24T05:33:30;8.87;;;5.63;;
5555;SDS011;2801;50.972;7.856;2023-04-24T05:35:57;8.80;;;5.20;;
5555;SDS011;2801;50.972;7.856;2023-04-24T05:38:24;9.63;;;5.53;;
5555;SDS011;2801;50.972;7.856;2023-04-24T05:40:51;10.63;;;6.03;;
5555;SDS011;2801;50.972;7.856;2023-04-24T05:43:18;8.00;;;5.53;;
5555;SDS011;2801;50.972;7.856;2023-04-24T05:45:45;9.83;;;5.80;;
5555;SDS011;2801;50.972;7.856;2023-04-24T05:48:12;7.97;;;5.03;;
5555;SDS011;2801;50.972;7.856;2023-04-24T05:50:39;8.77;;;5.57;;
5555;SDS011;2801;50.972;7.856;2023-04-24T05:53:06;11.80;;;5.80;;
5555;SDS011;2801;50.972;7.856;2023-04-24T05:55:33;8.03;;;4.73;;
5555;SDS011;2801;50.972;7.856;2023-04-24T05:58:00;10.10;;;5.40;;
5555;SDS011;2801;50.972;7.856;2023-04-24T06:00:27;10.90;;;5.50;;
5555;SDS011;2801;50.972;7.856;2023-04-24T06:02:54;7.00;;;5.60;;
5555;SDS011;2801;50.972;7.856;2023-04-24T06:05:22;9.10;;;5.33;;
5555;SDS011;2801;50.972;7.856;2023-04-24T06:07:50;8.18;;;5.43;;
5555;SDS011;2801;50.972;7.856;2023-04-24T06:10:17;7.80;;;5.37;;
5555;SDS011;2801;50.972;7.856;2023-04-24T06:12:44;7.43;;;5.00;;
5555;SDS011;2801;50.972;7.856;2023-04-24T06:15:11;8.50;;;5.05;;
5555;SDS011;2801;50.972;7.856;2023-04-24T06:17:56;7.80;;;5.00;;
5555;SDS011;2801;50.972;7.856;2023-04-24T06:20:23;8.00;;;5.27;;
5555;SDS011;2801;50.972;7.856;2023-04-24T06:22:51;7.97;;;4.93;;
5555;SDS011;2801;50.972;7.856;2023-04-24T06:25:18;8.07;;;5.40;;
5555;SDS011;2801;50.972;7.856;2023-04-24T06:27:45;9.67;;;5.30;;
5555;SDS011;2801;50.972;7.856;2023-04-24T06:30:12;8.60;;;5.20;;
5555;SDS011;2801;50.972;7.856;2023-04-24T06:32:39;8.80;;;5.50;;
5555;SDS011;2801;50.972;7.856;2023-04-24T06:35:06;8.00;;;5.50;;
5555;SDS011;2801;50.972;7.856;2023-04-24T06:37:35;8.50;;;5.30;;
5555;SDS011;2801;50.972;7.856;2023-04-24T06:40:02;9.27;;;5.67;;
5555;SDS011;2801;50.972;7.856;2023-04-24T06:42:33;9.00;;;5.50;;
5555;SDS011;2801;50.972;7.856;2023-04-24T06:45:01;8.53;;;5.27;;
5555;SDS011;2801;50.972;7.856;2023-04-24T06:47:29;9.33;;;5.43;;
5555;SDS011;2801;50.972;7.856;2023-04-24T06:50:13;8.20;;;5.07;;
5555;SDS011;2801;50.972;7.856;2023-04-24T06:52:40;8.38;;;5.38;;
5555;SDS011;2801;50.972;7.856;2023-04-24T06:55:07;8.40;;;5.93;;
5555;SDS011;2801;50.972;7.856;2023-04-24T06:57:34;7.93;;;5.27;;
5555;SDS011;2801;50.972;7.856;2023-04-24T07:00:02;8.77;;;5.50;;
5555;SDS011;2801;50.972;7.856;2023-04-24T07:02:49;8.55;;;5.72;;
5555;SDS011;2801;50.972;7.856;2023-04-24T07:05:16;9.67;;;5.00;;
5555;SDS011;2801;50.972;7.856;2023-04-24T07:07:46;7.80;;;5.72;;
5555;SDS011;2801;50.972;7.856;2023-04-24T07:10:15;8.88;;;5.55;;
5555;SDS011;2801;50.972;7.856;2023-04-24T07:12:59;9.00;;;5.47;;
5555;SDS011;2801;50.972;7.856;2023-04-24T07:15:27;7.50;;;5.70;;
5555;SDS011;2801;50.972;7.856;2023-04-24T07:17:54;9.20;;;5.28;;
5555;SDS011;2801;50.972;7.856;2023-04-24T07:20:39;8.25;;;4.85;;
5555;SDS011;2801;50.972;7.856;2023-04-24T07:23:06;10.32;;;6.07;;
5555;SDS011;2801;50.972;7.856;2023-04-24T07:25:33;8.73;;;5.63;;
5555;SDS011;2801;50.972;7.856;2023-04-24T07:28:00;10.15;;;5.78;;
5555;SDS011;2801;50.972;7.856;2023-04-24T07:30:27;8.35;;;5.90;;
5555;SDS011;2801;50.972;7.856;2023-04-24T07:32:59;9.10;;;6.17;;
5555;SDS011;2801;50.972;7.856;2023-04-24T07:35:26;9.93;;;6.27;;
5555;SDS011;2801;50.972;7.856;2023-04-24T07:37:53;9.90;;;6.45;;
5555;SDS011;2801;50.972;7.856;2023-04-24T07:40:21;8.27;;;6.20;;
5555;SDS011;2801;50.972;7.856;2023-04-24T07:42:48;9.37;;;5.20;;
5555;SDS011;2801;50.972;7.856;2023-04-24T07:45:15;10.07;;;6.35;;
5555;SDS011;2801;50.972;7.856;2023-04-24T07:47:42;10.47;;;6.17;;
5555;SDS011;2801;50.972;7.856;2023-04-24T07:50:12;11.07;;;6.07;;
5555;SDS011;2801;50.972;7.856;2023-04-24T07:52:39;9.93;;;5.90;;
5555;SDS011;2801;50.972;7.856;2023-04-24T07:55:06;8.27;;;5.77;;
5555;SDS011;2801;50.972;7.856;2023-04-24T07:57:33;9.07;;;5.43;;
5555;SDS011;2801;50.972;7.856;2023-04-24T08:00:02;8.33;;;5.50;;
5555;SDS011;2801;50.972;7.856;2023-04-24T08:02:31;7.90;;;5.50;;
5555;SDS011;2801;50.972;7.856;2023-04-24T08:05:16;10.37;;;5.57;;
5555;SDS011;2801;50.972;7.856;2023-04-24T08:07:45;6.27;;;4.33;;
5555;SDS011;2801;50.972;7.856;2023-04-24T08:10:15;7.47;;;4.63;;
5555;SDS011;2801;50.972;7.856;2023-04-24T08:12:42;6.30;;;4.53;;
5555;SDS011;2801;50.972;7.856;2023-04-24T08:15:09;8.63;;;4.53;;
5555;SDS011;2801;50.972;7.856;2023-04-24T08:17:37;6.50;;;4.37;;
5555;SDS011;2801;50.972;7.856;2023-04-24T08:20:21;7.23;;;4.47;;
5555;SDS011;2801;50.972;7.856;2023-04-24T08:22:48;6.13;;;4.40;;
5555;SDS011;2801;50.972;7.856;2023-04-24T08:25:15;7.37;;;4.17;;
5555;SDS011;2801;50.972;7.856;2023-04-24T08:27:42;6.20;;;3.57;;
5555;SDS011;2801;50.972;7.856;2023-04-24T08:30:09;4.93;;;3.60;;
5555;SDS011;2801;50.972;7.856;2023-04-24T08:32:37;7.93;;;4.00;;
5555;SDS011;2801;50.972;7.856;2023-04-24T08:35:04;5.93;;;4.00;;
5555;SDS011;2801;50.972;7.856;2023-04-24T08:37:48;3.90;;;2.70;;
5555;SDS011;2801;50.972;7.856;2023-04-24T08:40:17;3.93;;;2.17;;
5555;SDS011;2801;50.972;7.856;2023-04-24T08:42:44;3.53;;;2.70;;
5555;SDS011;2801;50.972;7.856;2023-04-24T08:45:12;5.97;;;3.47;;
5555;SDS011;2801;50.972;7.856;2023-04-24T08:47:56;2.60;;;1.40;;
5555;SDS011;2801;50.972;7.856;2023-04-24T08:50:25;1.53;;;1.43;;
5555;SDS011;2801;50.972;7.856;2023-04-24T08:52:52;1.60;;;1.30;;
5555;SDS011;2801;50.972;7.856;2023-04-24T08:55:37;0.80;;;0.80;;
5555;SDS011;2801;50.972;7.856;2023-04-24T08:58:05;0.93;;;0.87;;
5555;SDS011;2801;50.972;7.856;2023-04-24T09:00:32;0.83;;;0.60;;
5555;SDS011;2801;50.972;7.856;2023-04-24T09:03:00;1.03;;;0.80;;
5555;SDS011;2801;50.972;7.856;2023-04-24T09:05:29;1.33;;;0.80;;
5555;SDS011;2801;50.972;7.856;2023-04-24T09:07:56;1.43;;;0.70;;
5555;SDS011;2801;50.972;7.856;2023-04-24T09:10:25;0.83;;;0.60;;
5555;SDS011;2801;50.972;7.856;2023-04-24T09:12:53;1.00;;;0.80;;
5555;SDS011;2801;50.972;7.856;2023-04-24T09:15:21;1.40;;;0.83;;
5555;SDS011;2801;50.972;7.856;2023-04-24T09:17:48;1.80;;;0.70;;
5555;SDS011;2801;50.972;7.856;2023-04-24T09:20:16;0.93;;;0.73;;
5555;SDS011;2801;50.972;7.856;2023-04-24T09:22:43;1.47;;;0.80;;
5555;SDS011;2801;50.972;7.856;2023-04-24T09:25:11;0.50;;;0.50;;
5555;SDS011;2801;50.972;7.856;2023-04-24T09:27:42;1.60;;;0.40;;
5555;SDS011;2801;50.972;7.856;2023-04-24T09:30:28;1.57;;;0.40;;
5555;SDS011;2801;50.972;7.856;2023-04-24T09:33:09;0.50;;;0.50;;
5555;SDS011;2801;50.972;7.856;2023-04-24T09:35:59;0.40;;;0.40;;
5555;SDS011;2801;50.972;7.856;2023-04-24T09:38:33;0.33;;;0.33;;
5555;SDS011;2801;50.972;7.856;2023-04-24T09:41:04;0.60;;;0.50;;
5555;SDS011;2801;50.972;7.856;2023-04-24T09:43:34;3.63;;;0.60;;
5555;SDS011;2801;50.972;7.856;2023-04-24T09:46:06;1.63;;;0.70;;
5555;SDS011;2801;50.972;7.856;2023-04-24T09:48:53;0.97;;;0.70;;
5555;SDS011;2801;50.972;7.856;2023-04-24T09:51:37;1.17;;;0.90;;
5555;SDS011;2801;50.972;7.856;2023-04-24T09:54:15;0.90;;;0.87;;
5555;SDS011;2801;50.972;7.856;2023-04-24T09:56:48;1.03;;;0.80;;
5555;SDS011;2801;50.972;7.856;2023-04-24T09:59:18;1.50;;;1.10;;
5555;SDS011;2801;50.972;7.856;2023-04-24T10:01:46;1.00;;;0.87;;
5555;SDS011;2801;50.972;7.856;2023-04-24T10:04:22;1.30;;;1.10;;
5555;SDS011;2801;50.972;7.856;2023-04-24T10:06:54;1.20;;;1.00;;
5555;SDS011;2801;50.972;7.856;2023-04-24T10:09:24;2.13;;;1.30;;
5555;SDS011;2801;50.972;7.856;2023-04-24T10:11:54;2.13;;;1.57;;
5555;SDS011;2801;50.972;7.856;2023-04-24T10:14:38;1.60;;;1.30;;
5555;SDS011;2801;50.972;7.856;2023-04-24T10:17:09;4.53;;;1.47;;
5555;SDS011;2801;50.972;7.856;2023-04-24T10:19:37;2.50;;;1.30;;
5555;SDS011;2801;50.972;7.856;2023-04-24T10:22:24;3.67;;;1.57;;
5555;SDS011;2801;50.972;7.856;2023-04-24T10:24:53;3.03;;;1.60;;
5555;SDS011;2801;50.972;7.856;2023-04-24T10:27:20;1.73;;;1.30;;
5555;SDS011;2801;50.972;7.856;2023-04-24T10:29:49;3.80;;;2.20;;
5555;SDS011;2801;50.972;7.856;2023-04-24T10:32:37;1.60;;;1.30;;
5555;SDS011;2801;50.972;7.856;2023-04-24T10:35:05;2.23;;;1.43;;
5555;SDS011;2801;50.972;7.856;2023-04-24T10:37:35;3.70;;;1.73;;
5555;SDS011;2801;50.972;7.856;2023-04-24T10:40:07;1.93;;;1.37;;
5555;SDS011;2801;50.972;7.856;2023-04-24T10:42:40;3.23;;;1.70;;
5555;SDS011;2801;50.972;7.856;2023-04-24T10:45:26;1.37;;;1.20;;
5555;SDS011;2801;50.972;7.856;2023-04-24T10:47:56;2.93;;;1.67;;
5555;SDS011;2801;50.972;7.856;2023-04-24T10:50:44;2.33;;;1.80;;
5555;SDS011;2801;50.972;7.856;2023-04-24T10:53:35;4.10;;;1.97;;
5555;SDS011;2801;50.972;7.856;2023-04-24T10:56:21;1.80;;;1.43;;
5555;SDS011;2801;50.972;7.856;2023-04-24T10:58:51;2.23;;;1.70;;
5555;SDS011;2801;50.972;7.856;2023-04-24T11:01:26;3.30;;;2.20;;
5555;SDS011;2801;50.972;7.856;2023-04-24T11:04:00;3.67;;;1.97;;
5555;SDS011;2801;50.972;7.856;2023-04-24T11:06:46;3.70;;;2.17;;
5555;SDS011;2801;50.972;7.856;2023-04-24T11:09:14;4.10;;;2.07;;
5555;SDS011;2801;50.972;7.856;2023-04-24T11:11:46;4.40;;;2.57;;
5555;SDS011;2801;50.972;7.856;2023-04-24T11:14:30;3.30;;;2.50;;
5555;SDS011;2801;50.972;7.856;2023-04-24T11:17:41;5.97;;;3.20;;
5555;SDS011;2801;50.972;7.856;2023-04-24T11:20:11;5.33;;;3.50;;
5555;SDS011;2801;50.972;7.856;2023-04-24T11:22:53;6.33;;;3.60;;
5555;SDS011;2801;50.972;7.856;2023-04-24T11:25:21;8.80;;;4.13;;
5555;SDS011;2801;50.972;7.856;2023-04-24T11:27:49;5.43;;;4.17;;
5555;SDS011;2801;50.972;7.856;2023-04-24T11:30:34;10.83;;;5.17;;
5555;SDS011;2801;50.972;7.856;2023-04-24T11:33:02;7.10;;;4.30;;
5555;SDS011;2801;50.972;7.856;2023-04-24T11:35:48;8.23;;;4.33;;
5555;SDS011;2801;50.972;7.856;2023-04-24T11:38:17;7.80;;;4.80;;
5555;SDS011;2801;50.972;7.856;2023-04-24T11:40:51;8.57;;;5.07;;
5555;SDS011;2801;50.972;7.856;2023-04-24T11:43:19;10.27;;;5.50;;
5555;SDS011;2801;50.972;7.856;2023-04-24T11:45:47;12.07;;;6.23;;
5555;SDS011;2801;50.972;7.856;2023-04-24T11:48:18;11.40;;;5.07;;
5555;SDS011;2801;50.972;7.856;2023-04-24T11:50:49;10.83;;;5.37;;
5555;SDS011;2801;50.972;7.856;2023-04-24T11:53:18;8.83;;;5.17;;
5555;SDS011;2801;50.972;7.856;2023-04-24T11:55:47;6.70;;;4.40;;
5555;SDS011;2801;50.972;7.856;2023-04-24T11:58:14;5.27;;;3.37;;
5555;SDS011;2801;50.972;7.856;2023-04-24T12:00:53;5.32;;;4.00;;
5555;SDS011;2801;50.972;7.856;2023-04-24T12:03:24;5.43;;;3.57;;
5555;SDS011;2801;50.972;7.856;2023-04-24T12:05:52;7.53;;;3.57;;
5555;SDS011;2801;50.972;7.856;2023-04-24T12:08:31;6.57;;;3.33;;
5555;SDS011;2801;50.972;7.856;2023-04-24T12:11:16;8.20;;;4.00;;
5555;SDS011;2801;50.972;7.856;2023-04-24T12:13:44;8.50;;;3.70;;
5555;SDS011;2801;50.972;7.856;2023-04-24T12:16:11;6.93;;;3.90;;
5555;SDS011;2801;50.972;7.856;2023-04-24T12:18:42;9.30;;;4.23;;
5555;SDS011;2801;50.972;7.856;2023-04-24T12:21:29;8.03;;;3.87;;
5555;SDS011;2801;50.972;7.856;2023-04-24T12:23:58;8.03;;;4.87;;
5555;SDS011;2801;50.972;7.856;2023-04-24T12:26:24;8.53;;;3.73;;
5555;SDS011;2801;50.972;7.856;2023-04-24T12:28:53;10.77;;;4.00;;
5555;SDS011;2801;50.972;7.856;2023-04-24T12:31:20;7.07;;;3.77;;
5555;SDS011;2801;50.972;7.856;2023-04-24T12:33:48;8.95;;;3.38;;
5555;SDS011;2801;50.972;7.856;2023-04-24T12:36:15;10.00;;;3.92;;
5555;SDS011;2801;50.972;7.856;2023-04-24T12:38:43;9.32;;;3.75;;
5555;SDS011;2801;50.972;7.856;2023-04-24T12:41:30;6.53;;;3.67;;
5555;SDS011;2801;50.972;7.856;2023-04-24T12:43:57;8.63;;;3.70;;
5555;SDS011;2801;50.972;7.856;2023-04-24T12:46:24;11.43;;;3.30;;
5555;SDS011;2801;50.972;7.856;2023-04-24T12:49:09;8.60;;;3.88;;
5555;SDS011;2801;50.972;7.856;2023-04-24T12:51:36;10.20;;;4.15;;
5555;SDS011;2801;50.972;7.856;2023-04-24T12:54:03;11.55;;;4.10;;
5555;SDS011;2801;50.972;7.856;2023-04-24T12:56:47;11.13;;;5.28;;
5555;SDS011;2801;50.972;7.856;2023-04-24T12:59:14;10.65;;;4.82;;
5555;SDS011;2801;50.972;7.856;2023-04-24T13:01:59;8.73;;;4.63;;
5555;SDS011;2801;50.972;7.856;2023-04-24T13:04:26;11.57;;;4.70;;
5555;SDS011;2801;50.972;7.856;2023-04-24T13:06:53;13.55;;;4.80;;
5555;SDS011;2801;50.972;7.856;2023-04-24T13:09:20;9.13;;;5.30;;
5555;SDS011;2801;50.972;7.856;2023-04-24T13:11:47;9.15;;;5.03;;
5555;SDS011;2801;50.972;7.856;2023-04-24T13:14:13;11.07;;;6.40;;
5555;SDS011;2801;50.972;7.856;2023-04-24T13:16:40;13.38;;;5.97;;
5555;SDS011;2801;50.972;7.856;2023-04-24T13:19:07;11.52;;;5.45;;
5555;SDS011;2801;50.972;7.856;2023-04-24T13:21:34;10.13;;;6.05;;
5555;SDS011;2801;50.972;7.856;2023-04-24T13:24:01;12.13;;;7.13;;
5555;SDS011;2801;50.972;7.856;2023-04-24T13:26:48;14.30;;;6.32;;
5555;SDS011;2801;50.972;7.856;2023-04-24T13:29:32;11.15;;;6.22;;
5555;SDS011;2801;50.972;7.856;2023-04-24T13:31:59;13.73;;;6.50;;
5555;SDS011;2801;50.972;7.856;2023-04-24T13:34:26;15.93;;;6.50;;
5555;SDS011;2801;50.972;7.856;2023-04-24T13:37:10;11.80;;;6.30;;
5555;SDS011;2801;50.972;7.856;2023-04-24T13:39:55;12.77;;;6.10;;
5555;SDS011;2801;50.972;7.856;2023-04-24T13:42:22;11.73;;;5.85;;
5555;SDS011;2801;50.972;7.856;2023-04-24T13:44:49;10.55;;;5.00;;
5555;SDS011;2801;50.972;7.856;2023-04-24T13:47:34;10.13;;;4.97;;
5555;SDS011;2801;50.972;7.856;2023-04-24T13:50:02;14.10;;;6.03;;
5555;SDS011;2801;50.972;7.856;2023-04-24T13:52:29;10.23;;;5.25;;
5555;SDS011;2801;50.972;7.856;2023-04-24T13:54:56;10.98;;;6.15;;
5555;SDS011;2801;50.972;7.856;2023-04-24T13:57:23;11.18;;;5.35;;
5555;SDS011;2801;50.972;7.856;2023-04-24T13:59:50;12.43;;;5.60;;
5555;SDS011;2801;50.972;7.856;2023-04-24T14:02:17;11.35;;;5.25;;
5555;SDS011;2801;50.972;7.856;2023-04-24T14:04:44;8.50;;;5.13;;
5555;SDS011;2801;50.972;7.856;2023-04-24T14:07:11;10.57;;;5.72;;
5555;SDS011;2801;50.972;7.856;2023-04-24T14:09:38;7.68;;;4.60;;
5555;SDS011;2801;50.972;7.856;2023-04-24T14:12:06;9.48;;;5.20;;
5555;SDS011;2801;50.972;7.856;2023-04-24T14:14:34;7.57;;;4.90;;
5555;SDS011;2801;50.972;7.856;2023-04-24T14:17:01;9.13;;;5.72;;
5555;SDS011;2801;50.972;7.856;2023-04-24T14:19:28;8.35;;;4.97;;
5555;SDS011;2801;50.972;7.856;2023-04-24T14:21:55;13.60;;;6.35;;
5555;SDS011;2801;50.972;7.856;2023-04-24T14:24:24;8.10;;;4.28;;
5555;SDS011;2801;50.972;7.856;2023-04-24T14:26:51;9.60;;;5.00;;
5555;SDS011;2801;50.972;7.856;2023-04-24T14:29:18;10.15;;;5.78;;
5555;SDS011;2801;50.972;7.856;2023-04-24T14:31:45;12.50;;;5.90;;
5555;SDS011;2801;50.972;7.856;2023-04-24T14:34:13;9.93;;;5.38;;
5555;SDS011;2801;50.972;7.856;2023-04-24T14:36:40;13.85;;;4.63;;
5555;SDS011;2801;50.972;7.856;2023-04-24T14:39:09;12.40;;;6.18;;
5555;SDS011;2801;50.972;7.856;2023-04-24T14:41:36;13.18;;;5.40;;
5555;SDS011;2801;50.972;7.856;2023-04-24T14:44:05;9.70;;;5.07;;
5555;SDS011;2801;50.972;7.856;2023-04-24T14:46:32;12.18;;;4.93;;
5555;SDS011;2801;50.972;7.856;2023-04-24T14:48:59;11.48;;;5.15;;
5555;SDS011;2801;50.972;7.856;2023-04-24T14:51:26;9.38;;;4.93;;
5555;SDS011;2801;50.972;7.856;2023-04-24T14:53:53;9.35;;;4.80;;
5555;SDS011;2801;50.972;7.856;2023-04-24T14:56:20;10.93;;;5.35;;
5555;SDS011;2801;50.972;7.856;2023-04-24T14:58:47;11.27;;;5.22;;
5555;SDS011;2801;50.972;7.856;2023-04-24T15:01:14;9.45;;;5.13;;
5555;SDS011;2801;50.972;7.856;2023-04-24T15:03:43;8.40;;;5.57;;
5555;SDS011;2801;50.972;7.856;2023-04-24T15:06:11;7.68;;;4.53;;
5555;SDS011;2801;50.972;7.856;2023-04-24T15:08:38;6.78;;;4.60;;
5555;SDS011;2801;50.972;7.856;2023-04-24T15:11:05;8.43;;;4.00;;
5555;SDS011;2801;50.972;7.856;2023-04-24T15:13:32;10.00;;;4.22;;
5555;SDS011;2801;50.972;7.856;2023-04-24T15:15:59;8.18;;;4.40;;
5555;SDS011;2801;50.972;7.856;2023-04-24T15:18:26;6.68;;;4.30;;
5555;SDS011;2801;50.972;7.856;2023-04-24T15:20:55;11.65;;;5.40;;
5555;SDS011;2801;50.972;7.856;2023-04-24T15:23:22;9.07;;;5.32;;
5555;SDS011;2801;50.972;7.856;2023-04-24T15:25:49;7.47;;;4.55;;
5555;SDS011;2801;50.972;7.856;2023-04-24T15:28:16;9.30;;;4.65;;